00:07
Airports
History
Links
Donate
Help keep this website running!
PayPal
Bitcoin
This page is community maintained. The information is intended for PC simulator navigation or reference.
Always use approved charts for navigation.
EDHE
Uetersen
Uetersen (EDHE)
Heist, Schleswig-Holstein, Germany (25492)
(C)
Lat/Lng:53° 38' 47.71" N / 9° 42' 11.48" E
53.646587 / 9.70319
Elevation:22'ft / 7mMSL
ID / ICAO:EDHE
Runways:1
Longest:09-27
Grass 1,094m / 3,591ft
Controlled:Yes
Nearby Weather17:20 GMT 2017-10-16
Nearby weather at EDHI, Hamburg Finkenwerder located 9.4 nautical miles from EDHE
Altimeter: 30.09
Visibility: 6.2 statute miles
Wind: 1 knots (from VRB°)
Temp: 17°c / 63°f
Humidity: 88.0%

METAR: EDHI 161720Z VRB01KT CAVOK 17/15 Q1019

(Powered by phpweather)
Airport Radio Frequencies
AWOS 3: 125.1
Tower: 122.7
Nearby VORs <50NM
Nearby NDBs
Runway 09 / 27
Dimensions:1094.4 x 39.9m 3591' x 131'ft
Surface:Grass
Runway 09 [A]Runway 27 [B]
Heading:093°TH 273°TH
Lat:
Lng:
53° 38' 48.8"N
9° 41' 41.48"E
53° 38' 46.63"N
9° 42' 41.49"E
User Notes and Comments
53° 38' 47.71" N / 9° 42' 11.48" E
Distance To
Airport ID:
Nearby Airports
(C) Ahrenlohe 4.2 NM
EDHO NNE 23°
(C) Hamburg Finkenwerder 9.4 NM
EDHI ( WX ) SE 144°
(U) Stade 10.3 NM
EDHS SW 234°
(C) Hamburg 11.5 NM
EDDH ( WX ) E 93°
(U) Hartenholm 23.1 NM
EDHM NE 36°
(C) Hungriger Wolf 24.5 NM
EDHF NNW 347°
(C) Seedorf 28.2 NM
EDXS SW 220°
VFR Chart
Flight Planning at SkyVector.com